createdAt,value
2023-05-20T00:00:11.148Z,12.90
2023-05-20T00:02:39.822Z,12.90
2023-05-20T00:05:09.135Z,12.90
2023-05-20T00:07:37.269Z,12.90
2023-05-20T00:10:05.518Z,12.90
2023-05-20T00:12:35.879Z,12.90
2023-05-20T00:15:04.370Z,12.90
2023-05-20T00:17:32.694Z,12.90
2023-05-20T00:20:01.213Z,12.90
2023-05-20T00:22:29.374Z,12.90
2023-05-20T00:24:57.486Z,12.90
2023-05-20T00:27:25.637Z,12.80
2023-05-20T00:29:55.157Z,13.00
2023-05-20T00:32:23.344Z,13.00
2023-05-20T00:34:58.280Z,12.90
2023-05-20T00:37:26.850Z,12.90
2023-05-20T00:39:55.281Z,12.90
2023-05-20T00:42:23.484Z,12.90
2023-05-20T00:44:51.770Z,12.80
2023-05-20T00:47:23.408Z,12.80
2023-05-20T00:49:52.516Z,12.80
2023-05-20T00:52:21.629Z,12.80
2023-05-20T00:54:51.159Z,12.80
2023-05-20T00:57:21.158Z,12.70
2023-05-20T00:59:49.627Z,12.70
2023-05-20T01:02:17.910Z,12.60
2023-05-20T01:04:47.506Z,12.60
2023-05-20T01:07:18.365Z,12.60
2023-05-20T01:09:46.696Z,12.50
2023-05-20T01:12:19.214Z,12.60
2023-05-20T01:14:50.963Z,12.60
2023-05-20T01:17:22.560Z,12.50
2023-05-20T01:19:53.906Z,12.60
2023-05-20T01:22:28.022Z,12.60
2023-05-20T01:24:57.243Z,12.50
2023-05-20T01:27:27.817Z,12.50
2023-05-20T01:29:56.197Z,12.50
2023-05-20T01:32:27.126Z,12.40
2023-05-20T01:34:56.065Z,12.50
2023-05-20T01:37:26.786Z,12.40
2023-05-20T01:39:55.999Z,12.40
2023-05-20T01:42:24.843Z,12.40
2023-05-20T01:44:53.018Z,12.40
2023-05-20T01:47:21.280Z,12.30
2023-05-20T01:49:49.579Z,12.30
2023-05-20T01:52:18.146Z,12.30
2023-05-20T01:54:51.044Z,12.30
2023-05-20T01:57:19.887Z,12.30
2023-05-20T01:59:48.542Z,12.20
2023-05-20T02:02:17.203Z,12.20
2023-05-20T02:04:48.308Z,12.20
2023-05-20T02:07:16.518Z,12.20
2023-05-20T02:09:44.609Z,12.20
2023-05-20T02:12:17.255Z,12.10
2023-05-20T02:14:45.876Z,12.20
2023-05-20T02:17:14.618Z,12.10
2023-05-20T02:19:43.630Z,12.10
2023-05-20T02:22:11.808Z,12.10
2023-05-20T02:24:40.017Z,12.10
2023-05-20T02:27:08.249Z,12.10
2023-05-20T02:29:37.754Z,12.10
2023-05-20T02:32:06.463Z,12.10
2023-05-20T02:34:34.690Z,12.10
2023-05-20T02:37:02.835Z,12.00
2023-05-20T02:39:31.314Z,12.10
2023-05-20T02:41:59.482Z,12.10
2023-05-20T02:44:27.553Z,12.10
2023-05-20T02:46:57.988Z,12.20
2023-05-20T02:49:26.059Z,12.10
2023-05-20T02:51:54.088Z,12.10
2023-05-20T02:54:22.417Z,12.10
2023-05-20T02:56:50.529Z,12.00
2023-05-20T02:59:18.773Z,12.10
2023-05-20T03:01:47.264Z,12.20
2023-05-20T03:04:19.331Z,12.10
2023-05-20T03:06:47.784Z,12.10
2023-05-20T03:09:17.248Z,12.10
2023-05-20T03:11:45.516Z,12.10
2023-05-20T03:14:13.781Z,12.10
2023-05-20T03:16:41.977Z,12.10
2023-05-20T03:19:10.209Z,12.10
2023-05-20T03:21:39.824Z,12.10
2023-05-20T03:24:08.362Z,12.10
2023-05-20T03:26:37.672Z,12.10
2023-05-20T03:29:07.033Z,12.10
2023-05-20T03:31:35.475Z,12.10
2023-05-20T03:34:04.018Z,12.10
2023-05-20T03:36:32.524Z,12.20
2023-05-20T03:39:02.600Z,12.10
2023-05-20T03:41:31.790Z,12.10
2023-05-20T03:43:59.952Z,12.20
2023-05-20T03:46:28.649Z,12.20
2023-05-20T03:48:58.212Z,12.30
2023-05-20T03:51:26.841Z,12.30
2023-05-20T03:53:57.656Z,12.30
2023-05-20T03:56:27.554Z,12.40
2023-05-20T03:58:55.898Z,12.40
2023-05-20T04:01:25.991Z,12.40
2023-05-20T04:03:54.395Z,12.40
2023-05-20T04:06:22.765Z,12.50
2023-05-20T04:08:53.507Z,12.60
2023-05-20T04:11:23.036Z,12.60
2023-05-20T04:13:52.782Z,12.70
2023-05-20T04:16:21.272Z,12.70
2023-05-20T04:18:49.664Z,12.70
2023-05-20T04:21:18.956Z,12.70
2023-05-20T04:23:47.494Z,12.70
2023-05-20T04:26:15.623Z,12.70
2023-05-20T04:28:43.894Z,12.80
2023-05-20T04:31:13.658Z,12.80
2023-05-20T04:33:44.626Z,12.90
2023-05-20T04:36:16.463Z,13.00
2023-05-20T04:38:45.257Z,13.10
2023-05-20T04:41:13.424Z,13.10
2023-05-20T04:43:41.694Z,13.10
2023-05-20T04:46:10.105Z,13.20
2023-05-20T04:48:39.907Z,13.30
2023-05-20T04:51:08.759Z,13.40
2023-05-20T04:53:37.098Z,13.60
2023-05-20T04:56:05.810Z,13.50
2023-05-20T04:58:34.064Z,13.50
2023-05-20T05:01:02.875Z,13.60
2023-05-20T05:03:31.506Z,13.50
2023-05-20T05:06:01.358Z,13.60
2023-05-20T05:08:30.029Z,13.60
2023-05-20T05:10:58.340Z,13.80
2023-05-20T05:13:26.835Z,13.90
2023-05-20T05:16:02.583Z,14.00
2023-05-20T05:18:32.721Z,14.20
2023-05-20T05:21:03.619Z,14.10
2023-05-20T05:23:32.904Z,14.10
2023-05-20T05:26:01.270Z,14.30
2023-05-20T05:28:29.430Z,14.30
2023-05-20T05:30:57.786Z,14.40
2023-05-20T05:33:27.623Z,14.60
2023-05-20T05:35:59.003Z,14.70
2023-05-20T05:38:29.051Z,14.70
2023-05-20T05:40:57.699Z,14.90
2023-05-20T05:43:25.978Z,15.00
2023-05-20T05:45:54.952Z,15.10
2023-05-20T05:48:23.750Z,15.30
2023-05-20T05:50:52.056Z,15.40
2023-05-20T05:53:22.365Z,15.50
2023-05-20T05:55:53.001Z,15.50
2023-05-20T05:58:21.414Z,15.50
2023-05-20T06:00:54.488Z,15.70
2023-05-20T06:03:22.989Z,15.80
2023-05-20T06:05:51.222Z,15.90
2023-05-20T06:08:21.663Z,16.00
2023-05-20T06:10:50.296Z,16.10
2023-05-20T06:13:20.032Z,16.20
2023-05-20T06:15:50.039Z,16.40
2023-05-20T06:18:18.549Z,16.30
2023-05-20T06:20:47.161Z,16.50
2023-05-20T06:23:15.340Z,16.50
2023-05-20T06:25:59.249Z,16.50
2023-05-20T06:28:29.135Z,16.50
2023-05-20T06:30:57.441Z,16.60
2023-05-20T06:33:28.569Z,16.70
2023-05-20T06:36:01.875Z,16.80
2023-05-20T06:38:30.588Z,16.90
2023-05-20T06:40:58.714Z,17.00
2023-05-20T06:43:28.481Z,17.10
2023-05-20T06:46:10.202Z,17.10
2023-05-20T06:48:41.294Z,17.30
2023-05-20T06:51:09.850Z,17.20
2023-05-20T06:53:38.706Z,17.30
2023-05-20T06:56:07.724Z,17.30
2023-05-20T06:58:37.256Z,17.50
2023-05-20T07:01:06.171Z,17.70
2023-05-20T07:03:34.660Z,17.80
2023-05-20T07:06:03.450Z,17.80
2023-05-20T07:08:32.231Z,18.00
2023-05-20T07:11:00.780Z,18.00
2023-05-20T07:13:29.790Z,18.20
2023-05-20T07:15:59.328Z,18.20
2023-05-20T07:18:28.507Z,18.40
2023-05-20T07:20:58.283Z,18.50
2023-05-20T07:23:43.236Z,18.50
2023-05-20T07:26:11.409Z,18.50
2023-05-20T07:28:40.112Z,18.70
2023-05-20T07:31:09.712Z,18.90
2023-05-20T07:33:43.594Z,18.80
2023-05-20T07:36:11.646Z,18.80
2023-05-20T07:38:49.746Z,18.70
2023-05-20T07:41:25.291Z,18.70
2023-05-20T07:43:53.492Z,18.80
2023-05-20T07:46:23.230Z,19.00
2023-05-20T07:48:51.497Z,19.20
2023-05-20T07:51:20.002Z,19.30
2023-05-20T07:53:48.569Z,19.50
2023-05-20T07:56:17.770Z,20.00
2023-05-20T07:58:54.103Z,20.30
2023-05-20T08:01:25.361Z,20.50
2023-05-20T08:03:53.854Z,20.90
2023-05-20T08:06:26.766Z,21.20
2023-05-20T08:08:56.556Z,21.30
2023-05-20T08:11:30.222Z,21.50
2023-05-20T08:13:58.966Z,21.50
2023-05-20T08:16:31.559Z,21.70
2023-05-20T08:18:59.918Z,21.40
2023-05-20T08:21:28.659Z,21.60
2023-05-20T08:24:02.327Z,21.80
2023-05-20T08:26:30.540Z,21.90
2023-05-20T08:28:58.819Z,22.10
2023-05-20T08:31:27.151Z,22.40
2023-05-20T08:33:56.650Z,22.60
2023-05-20T08:36:24.835Z,23.00
2023-05-20T08:38:53.212Z,23.20
2023-05-20T08:41:22.673Z,23.30
2023-05-20T08:43:52.111Z,23.00
2023-05-20T08:46:24.034Z,23.10
2023-05-20T08:48:52.651Z,23.20
2023-05-20T08:51:23.885Z,23.70
2023-05-20T08:54:29.446Z,24.00
2023-05-20T08:56:57.687Z,23.70
2023-05-20T08:59:25.870Z,24.30
2023-05-20T09:01:54.035Z,24.80
2023-05-20T09:04:22.218Z,25.20
2023-05-20T09:06:52.711Z,25.00
2023-05-20T09:09:22.364Z,24.90
2023-05-20T09:11:50.648Z,25.00
2023-05-20T09:14:18.744Z,25.10
2023-05-20T09:16:46.932Z,25.10
2023-05-20T09:19:15.450Z,25.40
2023-05-20T09:21:43.894Z,25.60
2023-05-20T09:24:13.324Z,25.40
2023-05-20T09:26:41.391Z,24.70
2023-05-20T09:29:09.646Z,23.90
2023-05-20T09:31:39.005Z,24.40
2023-05-20T09:34:08.001Z,24.50
2023-05-20T09:36:36.953Z,24.30
2023-05-20T09:39:05.784Z,24.10
2023-05-20T09:41:40.026Z,24.40
2023-05-20T09:44:09.055Z,24.30
2023-05-20T09:46:38.452Z,24.10
2023-05-20T09:49:07.842Z,23.90
2023-05-20T09:51:36.950Z,23.90
2023-05-20T09:54:08.501Z,24.00
2023-05-20T09:56:38.228Z,23.80
2023-05-20T09:59:07.055Z,23.80
2023-05-20T10:01:35.196Z,23.60
2023-05-20T10:04:05.382Z,24.00
2023-05-20T10:07:08.954Z,24.20
2023-05-20T10:09:56.840Z,24.60
2023-05-20T10:12:35.286Z,25.00
2023-05-20T10:15:16.915Z,25.40
2023-05-20T10:17:52.527Z,25.60
2023-05-20T10:20:21.172Z,25.40
2023-05-20T10:22:57.202Z,25.50
2023-05-20T10:25:27.191Z,25.30
2023-05-20T10:28:09.450Z,24.80
2023-05-20T10:30:39.145Z,25.00
2023-05-20T10:33:08.061Z,25.40
2023-05-20T10:35:36.209Z,25.60
2023-05-20T10:38:12.348Z,26.00
2023-05-20T10:40:40.828Z,26.50
2023-05-20T10:43:14.410Z,26.50
2023-05-20T10:45:52.666Z,26.30
2023-05-20T10:48:28.987Z,25.80
2023-05-20T10:50:58.195Z,25.80
2023-05-20T10:53:34.198Z,26.10
2023-05-20T10:56:18.359Z,26.60
2023-05-20T10:58:47.792Z,27.10
2023-05-20T11:01:17.177Z,27.40
2023-05-20T11:03:47.207Z,27.80
2023-05-20T11:06:18.350Z,27.90
2023-05-20T11:08:47.530Z,28.00
2023-05-20T11:11:16.541Z,27.60
2023-05-20T11:13:44.676Z,27.40
2023-05-20T11:16:14.404Z,27.60
2023-05-20T11:18:42.489Z,27.80
2023-05-20T11:21:10.613Z,27.20
2023-05-20T11:23:40.618Z,26.80
2023-05-20T11:26:08.891Z,26.30
2023-05-20T11:28:37.403Z,26.20
2023-05-20T11:31:06.199Z,26.40
2023-05-20T11:33:35.647Z,26.40
2023-05-20T11:36:08.614Z,26.50
2023-05-20T11:38:38.892Z,26.30
2023-05-20T11:41:07.044Z,26.10
2023-05-20T11:43:35.360Z,26.50
2023-05-20T11:46:03.548Z,26.80
2023-05-20T11:48:31.719Z,27.20
2023-05-20T11:51:02.135Z,27.20
2023-05-20T11:53:30.545Z,27.40
2023-05-20T11:56:00.294Z,27.50
2023-05-20T11:58:30.614Z,27.20
2023-05-20T12:01:05.662Z,27.20
2023-05-20T12:03:47.279Z,26.80
2023-05-20T12:06:18.450Z,26.40
2023-05-20T12:08:47.390Z,25.90
2023-05-20T12:11:15.878Z,25.40
2023-05-20T12:13:43.954Z,25.00
2023-05-20T12:16:12.156Z,24.80
2023-05-20T12:18:40.287Z,24.60
2023-05-20T12:21:08.397Z,24.60
2023-05-20T12:23:37.842Z,25.00
2023-05-20T12:26:06.132Z,25.70
2023-05-20T12:28:34.291Z,26.20
2023-05-20T12:31:02.401Z,26.00
2023-05-20T12:33:30.475Z,25.60
2023-05-20T12:35:58.708Z,25.50
2023-05-20T12:38:26.763Z,25.40
2023-05-20T12:40:56.161Z,25.20
2023-05-20T12:43:24.296Z,25.10
2023-05-20T12:45:53.202Z,25.30
2023-05-20T12:48:21.354Z,25.90
2023-05-20T12:50:49.385Z,26.40
2023-05-20T12:53:17.408Z,26.20
2023-05-20T12:55:45.658Z,26.20
2023-05-20T12:58:15.245Z,26.60
2023-05-20T13:00:43.381Z,27.00
2023-05-20T13:03:11.944Z,27.40
2023-05-20T13:05:40.294Z,27.60
2023-05-20T13:08:09.101Z,27.40
2023-05-20T13:10:37.994Z,26.60
2023-05-20T13:13:06.715Z,26.00
2023-05-20T13:15:36.785Z,26.20
2023-05-20T13:18:06.763Z,26.00
2023-05-20T13:20:35.355Z,25.80
2023-05-20T13:23:03.635Z,25.70
2023-05-20T13:25:31.921Z,25.40
2023-05-20T13:28:00.051Z,25.30
2023-05-20T13:30:28.773Z,25.00
2023-05-20T13:32:58.181Z,24.90
2023-05-20T13:35:26.390Z,24.90
2023-05-20T13:37:54.463Z,24.70
2023-05-20T13:40:22.697Z,24.60
2023-05-20T13:42:50.813Z,24.30
2023-05-20T13:45:19.048Z,24.40
2023-05-20T13:47:47.237Z,24.40
2023-05-20T13:50:16.951Z,24.60
2023-05-20T13:52:44.983Z,24.60
2023-05-20T13:55:13.210Z,24.40
2023-05-20T13:57:41.305Z,24.40
2023-05-20T14:00:10.505Z,24.50
2023-05-20T14:02:39.526Z,24.70
2023-05-20T14:05:08.758Z,25.00
2023-05-20T14:07:38.247Z,25.60
2023-05-20T14:10:09.153Z,26.00
2023-05-20T14:12:37.544Z,26.20
2023-05-20T14:15:06.600Z,26.60
2023-05-20T14:17:34.787Z,26.90
2023-05-20T14:20:03.055Z,27.10
2023-05-20T14:22:31.252Z,27.30
2023-05-20T14:25:00.895Z,27.60
2023-05-20T14:27:29.145Z,27.20
2023-05-20T14:29:57.286Z,26.90
2023-05-20T14:32:25.575Z,27.00
2023-05-20T14:34:53.801Z,27.00
2023-05-20T14:37:22.975Z,27.00
2023-05-20T14:39:51.102Z,27.10
2023-05-20T14:42:20.675Z,27.20
2023-05-20T14:44:49.813Z,27.00
2023-05-20T14:47:21.392Z,26.40
2023-05-20T14:49:50.124Z,25.80
2023-05-20T14:52:18.507Z,25.30
2023-05-20T14:54:46.705Z,25.10
2023-05-20T14:57:15.928Z,25.10
2023-05-20T14:59:45.942Z,25.10
2023-05-20T15:02:15.840Z,24.90
2023-05-20T15:04:46.305Z,24.80
2023-05-20T15:07:15.263Z,24.70
2023-05-20T15:09:43.784Z,24.50
2023-05-20T15:12:12.751Z,24.40
2023-05-20T15:14:40.812Z,24.20
2023-05-20T15:17:10.311Z,23.90
2023-05-20T15:19:41.423Z,23.80
2023-05-20T15:22:09.941Z,23.60
2023-05-20T15:24:38.049Z,23.50
2023-05-20T15:27:06.568Z,23.30
2023-05-20T15:29:34.832Z,23.30
2023-05-20T15:32:02.902Z,23.30
2023-05-20T15:34:32.323Z,23.40
2023-05-20T15:37:00.381Z,23.30
2023-05-20T15:39:28.364Z,23.50
2023-05-20T15:41:59.322Z,23.70
2023-05-20T15:44:28.888Z,24.00
2023-05-20T15:46:57.224Z,24.00
2023-05-20T15:49:25.475Z,24.20
2023-05-20T15:52:02.844Z,24.20
2023-05-20T15:54:33.214Z,24.50
2023-05-20T15:57:02.590Z,24.70
2023-05-20T15:59:31.129Z,24.80
2023-05-20T16:01:59.822Z,24.90
2023-05-20T16:04:28.150Z,24.90
2023-05-20T16:06:57.602Z,24.80
2023-05-20T16:09:26.042Z,24.70
2023-05-20T16:11:55.250Z,24.60
2023-05-20T16:14:23.407Z,24.40
2023-05-20T16:16:51.560Z,24.50
2023-05-20T16:19:20.389Z,24.30
2023-05-20T16:21:48.808Z,24.00
2023-05-20T16:24:18.390Z,23.80
2023-05-20T16:26:46.484Z,23.60
2023-05-20T16:29:16.363Z,23.30
2023-05-20T16:31:46.614Z,23.20
2023-05-20T16:34:16.386Z,23.00
2023-05-20T16:36:46.085Z,22.80
2023-05-20T16:39:14.583Z,22.70
2023-05-20T16:41:44.543Z,22.70
2023-05-20T16:44:12.908Z,22.60
2023-05-20T16:46:41.345Z,22.60
2023-05-20T16:49:09.580Z,22.50
2023-05-20T16:51:37.780Z,22.40
2023-05-20T16:54:05.962Z,22.30
2023-05-20T16:56:35.337Z,22.30
2023-05-20T16:59:04.993Z,22.20
2023-05-20T17:01:33.511Z,22.10
2023-05-20T17:04:02.142Z,22.10
2023-05-20T17:06:33.952Z,22.00
2023-05-20T17:09:04.194Z,21.90
2023-05-20T17:11:32.349Z,21.80
2023-05-20T17:14:00.593Z,21.70
2023-05-20T17:16:30.160Z,21.70
2023-05-20T17:18:58.727Z,21.70
2023-05-20T17:21:27.215Z,21.40
2023-05-20T17:23:55.568Z,21.40
2023-05-20T17:26:24.013Z,21.30
2023-05-20T17:28:52.130Z,21.30
2023-05-20T17:31:20.380Z,21.30
2023-05-20T17:33:50.158Z,21.20
2023-05-20T17:36:18.563Z,21.10
2023-05-20T17:38:46.665Z,20.90
2023-05-20T17:41:14.844Z,20.90
2023-05-20T17:43:43.058Z,20.80
2023-05-20T17:46:11.789Z,20.70
2023-05-20T17:48:40.456Z,20.60
2023-05-20T17:51:10.002Z,20.50
2023-05-20T17:53:38.049Z,20.40
2023-05-20T17:56:09.412Z,20.30
2023-05-20T17:58:37.613Z,20.20
2023-05-20T18:01:06.193Z,20.10
2023-05-20T18:03:34.711Z,20.00
2023-05-20T18:06:05.534Z,19.90
2023-05-20T18:08:35.141Z,19.80
2023-05-20T18:11:03.213Z,19.70
2023-05-20T18:13:31.468Z,19.60
2023-05-20T18:15:59.824Z,19.50
2023-05-20T18:18:28.113Z,19.40
2023-05-20T18:20:56.222Z,19.30
2023-05-20T18:23:24.246Z,19.20
2023-05-20T18:25:53.604Z,19.10
2023-05-20T18:28:21.670Z,19.00
2023-05-20T18:30:49.833Z,18.90
2023-05-20T18:33:17.953Z,18.90
2023-05-20T18:35:46.060Z,18.80
2023-05-20T18:38:14.087Z,18.70
2023-05-20T18:40:42.095Z,18.60
2023-05-20T18:43:11.562Z,18.50
2023-05-20T18:45:39.618Z,18.50
2023-05-20T18:48:08.083Z,18.40
2023-05-20T18:50:36.910Z,18.40
2023-05-20T18:53:05.194Z,18.20
2023-05-20T18:55:33.223Z,18.10
2023-05-20T18:58:01.438Z,18.00
2023-05-20T19:00:30.942Z,18.00
2023-05-20T19:02:59.201Z,17.90
2023-05-20T19:05:27.516Z,17.80
2023-05-20T19:07:55.709Z,17.80
2023-05-20T19:10:23.892Z,17.70
2023-05-20T19:12:51.873Z,17.60
2023-05-20T19:15:19.955Z,17.50
2023-05-20T19:17:49.430Z,17.30
2023-05-20T19:20:17.736Z,17.40
2023-05-20T19:22:45.922Z,17.30
2023-05-20T19:25:14.022Z,17.20
2023-05-20T19:27:42.309Z,17.20
2023-05-20T19:30:11.361Z,17.10
2023-05-20T19:32:39.744Z,17.00
2023-05-20T19:35:09.967Z,17.00
2023-05-20T19:37:38.017Z,16.90
2023-05-20T19:40:07.944Z,16.80
2023-05-20T19:42:36.459Z,16.80
2023-05-20T19:45:05.153Z,16.70
2023-05-20T19:47:33.267Z,16.70
2023-05-20T19:50:01.507Z,16.60
2023-05-20T19:52:32.117Z,16.50
2023-05-20T19:55:00.244Z,16.40
2023-05-20T19:57:28.451Z,16.40
2023-05-20T19:59:56.514Z,16.30
2023-05-20T20:02:24.726Z,16.30
2023-05-20T20:04:52.975Z,16.20
2023-05-20T20:07:21.639Z,16.10
2023-05-20T20:09:55.173Z,16.10
2023-05-20T20:12:23.736Z,16.00
2023-05-20T20:14:52.428Z,16.00
2023-05-20T20:17:23.438Z,15.90
2023-05-20T20:19:53.965Z,15.90
2023-05-20T20:22:22.046Z,15.80
2023-05-20T20:24:51.546Z,15.70
2023-05-20T20:27:24.102Z,15.70
2023-05-20T20:29:52.739Z,15.70
2023-05-20T20:32:21.140Z,15.60
2023-05-20T20:34:49.212Z,15.70
2023-05-20T20:37:17.379Z,15.50
2023-05-20T20:39:47.057Z,15.50
2023-05-20T20:42:16.608Z,15.40
2023-05-20T20:44:48.423Z,15.30
2023-05-20T20:47:16.556Z,15.30
2023-05-20T20:49:44.729Z,15.30
2023-05-20T20:52:13.055Z,15.30
2023-05-20T20:54:43.277Z,15.20
2023-05-20T20:57:13.964Z,15.20
2023-05-20T20:59:47.722Z,15.20
2023-05-20T21:02:16.235Z,15.10
2023-05-20T21:04:44.325Z,15.10
2023-05-20T21:07:12.512Z,15.10
2023-05-20T21:09:40.572Z,15.00
2023-05-20T21:12:09.466Z,14.90
2023-05-20T21:14:37.673Z,14.90
2023-05-20T21:17:07.405Z,14.90
2023-05-20T21:19:36.240Z,14.80
2023-05-20T21:22:04.587Z,14.80
2023-05-20T21:24:32.731Z,14.80
2023-05-20T21:27:00.880Z,14.80
2023-05-20T21:29:28.957Z,14.80
2023-05-20T21:31:57.055Z,14.70
2023-05-20T21:34:26.487Z,14.60
2023-05-20T21:36:54.697Z,14.60
2023-05-20T21:39:22.944Z,14.50
2023-05-20T21:41:51.238Z,14.40
2023-05-20T21:44:19.789Z,14.50
2023-05-20T21:46:48.039Z,14.40
2023-05-20T21:49:16.273Z,14.30
2023-05-20T21:51:45.786Z,14.30
2023-05-20T21:54:13.965Z,14.30
2023-05-20T21:56:42.051Z,14.30
2023-05-20T21:59:10.106Z,14.20
2023-05-20T22:01:38.398Z,14.20
2023-05-20T22:04:06.988Z,14.20
2023-05-20T22:06:36.170Z,14.10
2023-05-20T22:09:05.855Z,14.10
2023-05-20T22:11:33.934Z,14.10
2023-05-20T22:14:01.986Z,14.00
2023-05-20T22:16:30.193Z,13.90
2023-05-20T22:18:58.442Z,13.90
2023-05-20T22:21:26.591Z,13.80
2023-05-20T22:23:54.706Z,13.80
2023-05-20T22:26:25.284Z,13.80
2023-05-20T22:28:53.936Z,13.70
2023-05-20T22:31:22.107Z,13.70
2023-05-20T22:33:50.329Z,13.70
2023-05-20T22:36:18.470Z,13.60
2023-05-20T22:38:46.812Z,13.60
2023-05-20T22:41:14.879Z,13.50
2023-05-20T22:43:44.387Z,13.50
2023-05-20T22:46:13.163Z,13.50
2023-05-20T22:48:41.285Z,13.50
2023-05-20T22:51:09.833Z,13.50
2023-05-20T22:53:37.824Z,13.50
2023-05-20T22:56:06.876Z,13.50
2023-05-20T22:58:39.657Z,13.40
2023-05-20T23:01:09.076Z,13.30
2023-05-20T23:03:37.478Z,13.30
2023-05-20T23:06:05.703Z,13.20
2023-05-20T23:08:33.739Z,13.10
2023-05-20T23:11:01.818Z,13.10
2023-05-20T23:13:29.910Z,13.10
2023-05-20T23:15:57.959Z,13.00
2023-05-20T23:18:27.429Z,12.90
2023-05-20T23:20:55.844Z,12.90
2023-05-20T23:23:30.595Z,12.90
2023-05-20T23:26:00.216Z,12.90
2023-05-20T23:28:28.419Z,12.90
2023-05-20T23:30:56.638Z,12.90
2023-05-20T23:33:25.640Z,12.90
2023-05-20T23:35:55.185Z,12.90
2023-05-20T23:38:23.203Z,12.80
2023-05-20T23:40:51.653Z,12.80
2023-05-20T23:43:19.738Z,12.80
2023-05-20T23:45:47.845Z,12.80
2023-05-20T23:48:17.899Z,12.70
2023-05-20T23:50:46.520Z,12.70
2023-05-20T23:53:15.953Z,12.70
2023-05-20T23:55:45.123Z,12.60
2023-05-20T23:58:13.250Z,12.60
